sensor_id;sensor_type;location;lat;lon;timestamp;temperature;humidity
19292;DHT22;9779;51.756;7.450;2022-07-29T00:01:15;19.80;96.90
19292;DHT22;9779;51.756;7.450;2022-07-29T00:03:41;19.80;97.50
19292;DHT22;9779;51.756;7.450;2022-07-29T00:06:07;19.70;97.50
19292;DHT22;9779;51.756;7.450;2022-07-29T00:10:59;19.70;99.90
19292;DHT22;9779;51.756;7.450;2022-07-29T00:13:24;19.70;99.90
19292;DHT22;9779;51.756;7.450;2022-07-29T00:15:50;19.70;99.90
19292;DHT22;9779;51.756;7.450;2022-07-29T00:18:15;19.50;99.90
19292;DHT22;9779;51.756;7.450;2022-07-29T00:20:41;19.40;99.90
19292;DHT22;9779;51.756;7.450;2022-07-29T00:23:06;19.50;99.90
19292;DHT22;9779;51.756;7.450;2022-07-29T00:25:32;19.50;99.90
19292;DHT22;9779;51.756;7.450;2022-07-29T00:27:57;19.30;99.90
19292;DHT22;9779;51.756;7.450;2022-07-29T00:30:23;19.30;99.90
19292;DHT22;9779;51.756;7.450;2022-07-29T00:32:49;19.50;99.90
19292;DHT22;9779;51.756;7.450;2022-07-29T00:35:14;19.30;99.90
19292;DHT22;9779;51.756;7.450;2022-07-29T00:37:58;19.30;99.90
19292;DHT22;9779;51.756;7.450;2022-07-29T00:40:24;19.30;99.90
19292;DHT22;9779;51.756;7.450;2022-07-29T00:42:51;19.30;99.90
19292;DHT22;9779;51.756;7.450;2022-07-29T00:45:17;19.30;99.90
19292;DHT22;9779;51.756;7.450;2022-07-29T00:47:43;19.40;99.90
19292;DHT22;9779;51.756;7.450;2022-07-29T00:50:10;19.20;99.90
19292;DHT22;9779;51.756;7.450;2022-07-29T00:52:38;19.20;99.90
19292;DHT22;9779;51.756;7.450;2022-07-29T00:55:05;19.20;99.90
19292;DHT22;9779;51.756;7.450;2022-07-29T00:57:31;19.10;99.90
19292;DHT22;9779;51.756;7.450;2022-07-29T00:59:57;19.20;99.90
19292;DHT22;9779;51.756;7.450;2022-07-29T01:02:23;19.10;99.90
19292;DHT22;9779;51.756;7.450;2022-07-29T01:04:49;19.10;99.90
19292;DHT22;9779;51.756;7.450;2022-07-29T01:07:15;19.20;99.90
19292;DHT22;9779;51.756;7.450;2022-07-29T01:09:42;19.00;99.90
19292;DHT22;9779;51.756;7.450;2022-07-29T01:12:08;19.00;99.90
19292;DHT22;9779;51.756;7.450;2022-07-29T01:14:35;18.90;99.90
19292;DHT22;9779;51.756;7.450;2022-07-29T01:25:30;18.80;99.90
19292;DHT22;9779;51.756;7.450;2022-07-29T01:31:07;18.70;99.90
19292;DHT22;9779;51.756;7.450;2022-07-29T01:33:39;18.80;99.90
19292;DHT22;9779;51.756;7.450;2022-07-29T01:36:25;18.80;99.90
19292;DHT22;9779;51.756;7.450;2022-07-29T01:39:14;18.70;99.90
19292;DHT22;9779;51.756;7.450;2022-07-29T01:41:52;18.70;99.90
19292;DHT22;9779;51.756;7.450;2022-07-29T01:44:30;18.60;99.90
19292;DHT22;9779;51.756;7.450;2022-07-29T01:46:59;18.70;99.90
19292;DHT22;9779;51.756;7.450;2022-07-29T01:49:31;18.70;99.90
19292;DHT22;9779;51.756;7.450;2022-07-29T01:52:07;18.70;99.90
19292;DHT22;9779;51.756;7.450;2022-07-29T01:54:40;18.60;99.90
19292;DHT22;9779;51.756;7.450;2022-07-29T01:57:13;18.60;99.90
19292;DHT22;9779;51.756;7.450;2022-07-29T01:59:41;18.60;99.90
19292;DHT22;9779;51.756;7.450;2022-07-29T02:02:09;18.60;99.90
19292;DHT22;9779;51.756;7.450;2022-07-29T02:04:37;18.50;99.90
19292;DHT22;9779;51.756;7.450;2022-07-29T02:07:07;18.50;99.90
19292;DHT22;9779;51.756;7.450;2022-07-29T02:09:36;18.50;99.90
19292;DHT22;9779;51.756;7.450;2022-07-29T02:12:04;18.40;99.90
19292;DHT22;9779;51.756;7.450;2022-07-29T02:14:33;18.50;99.90
19292;DHT22;9779;51.756;7.450;2022-07-29T02:17:00;18.50;99.90
19292;DHT22;9779;51.756;7.450;2022-07-29T02:19:28;18.40;99.90
19292;DHT22;9779;51.756;7.450;2022-07-29T02:21:56;18.50;99.90
19292;DHT22;9779;51.756;7.450;2022-07-29T02:24:23;18.40;99.90
19292;DHT22;9779;51.756;7.450;2022-07-29T02:26:53;18.40;99.90
19292;DHT22;9779;51.756;7.450;2022-07-29T02:29:21;18.40;99.90
19292;DHT22;9779;51.756;7.450;2022-07-29T02:31:49;18.30;99.90
19292;DHT22;9779;51.756;7.450;2022-07-29T02:34:16;18.30;99.90
19292;DHT22;9779;51.756;7.450;2022-07-29T02:36:43;18.20;99.90
19292;DHT22;9779;51.756;7.450;2022-07-29T02:39:11;18.20;99.90
19292;DHT22;9779;51.756;7.450;2022-07-29T02:41:43;18.20;99.90
19292;DHT22;9779;51.756;7.450;2022-07-29T02:44:16;18.20;99.90
19292;DHT22;9779;51.756;7.450;2022-07-29T02:46:53;18.20;99.90
19292;DHT22;9779;51.756;7.450;2022-07-29T02:49:38;18.20;99.90
19292;DHT22;9779;51.756;7.450;2022-07-29T02:52:14;18.20;99.90
19292;DHT22;9779;51.756;7.450;2022-07-29T02:57:41;18.20;99.90
19292;DHT22;9779;51.756;7.450;2022-07-29T03:00:09;18.10;99.90
19292;DHT22;9779;51.756;7.450;2022-07-29T03:02:38;18.10;99.90
19292;DHT22;9779;51.756;7.450;2022-07-29T03:05:08;18.10;99.90
19292;DHT22;9779;51.756;7.450;2022-07-29T03:07:35;18.00;99.90
19292;DHT22;9779;51.756;7.450;2022-07-29T03:10:02;18.00;99.90
19292;DHT22;9779;51.756;7.450;2022-07-29T03:12:28;18.00;99.90
19292;DHT22;9779;51.756;7.450;2022-07-29T03:14:55;17.90;99.90
19292;DHT22;9779;51.756;7.450;2022-07-29T03:17:21;17.90;99.90
19292;DHT22;9779;51.756;7.450;2022-07-29T03:19:47;17.90;99.90
19292;DHT22;9779;51.756;7.450;2022-07-29T03:22:14;17.90;99.90
19292;DHT22;9779;51.756;7.450;2022-07-29T03:24:39;17.90;99.90
19292;DHT22;9779;51.756;7.450;2022-07-29T03:27:05;17.80;99.90
19292;DHT22;9779;51.756;7.450;2022-07-29T03:29:31;17.80;99.90
19292;DHT22;9779;51.756;7.450;2022-07-29T03:31:57;17.80;99.90
19292;DHT22;9779;51.756;7.450;2022-07-29T03:34:23;17.70;99.90
19292;DHT22;9779;51.756;7.450;2022-07-29T03:36:49;17.70;99.90
19292;DHT22;9779;51.756;7.450;2022-07-29T03:39:18;17.80;99.90
19292;DHT22;9779;51.756;7.450;2022-07-29T03:41:48;17.80;99.90
19292;DHT22;9779;51.756;7.450;2022-07-29T03:44:16;17.80;99.90
19292;DHT22;9779;51.756;7.450;2022-07-29T03:46:44;17.80;99.90
19292;DHT22;9779;51.756;7.450;2022-07-29T03:49:11;17.80;99.90
19292;DHT22;9779;51.756;7.450;2022-07-29T03:51:38;17.80;99.90
19292;DHT22;9779;51.756;7.450;2022-07-29T03:54:04;17.80;99.90
19292;DHT22;9779;51.756;7.450;2022-07-29T03:56:32;17.80;99.90
19292;DHT22;9779;51.756;7.450;2022-07-29T03:59:01;17.80;99.90
19292;DHT22;9779;51.756;7.450;2022-07-29T04:01:28;17.80;99.90
19292;DHT22;9779;51.756;7.450;2022-07-29T04:03:54;17.70;99.90
19292;DHT22;9779;51.756;7.450;2022-07-29T04:06:20;17.60;99.90
19292;DHT22;9779;51.756;7.450;2022-07-29T04:08:46;17.60;99.90
19292;DHT22;9779;51.756;7.450;2022-07-29T04:11:12;17.60;99.90
19292;DHT22;9779;51.756;7.450;2022-07-29T04:13:38;17.60;99.90
19292;DHT22;9779;51.756;7.450;2022-07-29T04:16:04;17.60;99.90
19292;DHT22;9779;51.756;7.450;2022-07-29T04:18:29;17.50;99.90
19292;DHT22;9779;51.756;7.450;2022-07-29T04:20:55;17.50;99.90
19292;DHT22;9779;51.756;7.450;2022-07-29T04:23:20;17.50;99.90
19292;DHT22;9779;51.756;7.450;2022-07-29T04:25:46;17.50;99.90
19292;DHT22;9779;51.756;7.450;2022-07-29T04:28:12;17.40;99.90
19292;DHT22;9779;51.756;7.450;2022-07-29T04:30:38;17.50;99.90
19292;DHT22;9779;51.756;7.450;2022-07-29T04:33:05;17.50;99.90
19292;DHT22;9779;51.756;7.450;2022-07-29T04:35:35;17.50;99.90
19292;DHT22;9779;51.756;7.450;2022-07-29T04:38:00;17.40;99.90
19292;DHT22;9779;51.756;7.450;2022-07-29T04:40:26;17.40;99.90
19292;DHT22;9779;51.756;7.450;2022-07-29T04:42:52;17.40;99.90
19292;DHT22;9779;51.756;7.450;2022-07-29T04:45:18;17.40;99.90
19292;DHT22;9779;51.756;7.450;2022-07-29T04:47:44;17.40;99.90
19292;DHT22;9779;51.756;7.450;2022-07-29T04:50:09;17.40;99.90
19292;DHT22;9779;51.756;7.450;2022-07-29T04:52:36;17.40;99.90
19292;DHT22;9779;51.756;7.450;2022-07-29T04:55:03;17.30;99.90
19292;DHT22;9779;51.756;7.450;2022-07-29T04:57:28;17.40;99.90
19292;DHT22;9779;51.756;7.450;2022-07-29T04:59:54;17.40;99.90
19292;DHT22;9779;51.756;7.450;2022-07-29T05:02:19;17.40;99.90
19292;DHT22;9779;51.756;7.450;2022-07-29T05:04:45;17.40;99.90
19292;DHT22;9779;51.756;7.450;2022-07-29T05:07:10;17.40;99.90
19292;DHT22;9779;51.756;7.450;2022-07-29T05:09:36;17.30;99.90
19292;DHT22;9779;51.756;7.450;2022-07-29T05:12:02;17.40;99.90
19292;DHT22;9779;51.756;7.450;2022-07-29T05:14:27;17.30;99.90
19292;DHT22;9779;51.756;7.450;2022-07-29T05:16:53;17.30;99.90
19292;DHT22;9779;51.756;7.450;2022-07-29T05:19:22;17.20;99.90
19292;DHT22;9779;51.756;7.450;2022-07-29T05:21:47;17.30;99.90
19292;DHT22;9779;51.756;7.450;2022-07-29T05:24:13;17.30;99.90
19292;DHT22;9779;51.756;7.450;2022-07-29T05:26:40;17.30;99.90
19292;DHT22;9779;51.756;7.450;2022-07-29T05:29:05;17.30;99.90
19292;DHT22;9779;51.756;7.450;2022-07-29T05:31:31;17.30;99.90
19292;DHT22;9779;51.756;7.450;2022-07-29T05:33:57;17.30;99.90
19292;DHT22;9779;51.756;7.450;2022-07-29T05:36:22;17.30;99.90
19292;DHT22;9779;51.756;7.450;2022-07-29T05:38:48;17.30;99.90
19292;DHT22;9779;51.756;7.450;2022-07-29T05:41:13;17.40;99.90
19292;DHT22;9779;51.756;7.450;2022-07-29T05:43:39;17.40;99.90
19292;DHT22;9779;51.756;7.450;2022-07-29T05:46:04;17.30;99.90
19292;DHT22;9779;51.756;7.450;2022-07-29T05:48:30;17.30;99.90
19292;DHT22;9779;51.756;7.450;2022-07-29T05:50:55;17.30;99.90
19292;DHT22;9779;51.756;7.450;2022-07-29T05:53:21;17.30;99.90
19292;DHT22;9779;51.756;7.450;2022-07-29T05:55:48;17.30;99.90
19292;DHT22;9779;51.756;7.450;2022-07-29T05:58:13;17.30;99.90
19292;DHT22;9779;51.756;7.450;2022-07-29T06:00:39;17.40;99.90
19292;DHT22;9779;51.756;7.450;2022-07-29T06:03:05;17.40;99.90
19292;DHT22;9779;51.756;7.450;2022-07-29T06:05:30;17.30;99.90
19292;DHT22;9779;51.756;7.450;2022-07-29T06:07:56;17.20;99.90
19292;DHT22;9779;51.756;7.450;2022-07-29T06:10:21;17.20;99.90
19292;DHT22;9779;51.756;7.450;2022-07-29T06:12:47;17.10;99.90
19292;DHT22;9779;51.756;7.450;2022-07-29T06:15:13;17.10;99.90
19292;DHT22;9779;51.756;7.450;2022-07-29T06:17:38;17.10;99.90
19292;DHT22;9779;51.756;7.450;2022-07-29T06:20:04;17.10;99.90
19292;DHT22;9779;51.756;7.450;2022-07-29T06:22:30;17.10;99.90
19292;DHT22;9779;51.756;7.450;2022-07-29T06:24:55;17.10;99.90
19292;DHT22;9779;51.756;7.450;2022-07-29T06:27:21;17.10;99.90
19292;DHT22;9779;51.756;7.450;2022-07-29T06:29:47;17.10;99.90
19292;DHT22;9779;51.756;7.450;2022-07-29T06:32:12;17.10;99.90
19292;DHT22;9779;51.756;7.450;2022-07-29T06:34:38;17.20;99.90
19292;DHT22;9779;51.756;7.450;2022-07-29T06:37:07;17.40;99.90
19292;DHT22;9779;51.756;7.450;2022-07-29T06:39:36;17.40;99.90
19292;DHT22;9779;51.756;7.450;2022-07-29T06:42:04;17.60;99.90
19292;DHT22;9779;51.756;7.450;2022-07-29T06:44:29;17.70;99.90
19292;DHT22;9779;51.756;7.450;2022-07-29T06:46:56;17.70;99.90
19292;DHT22;9779;51.756;7.450;2022-07-29T06:49:21;17.80;99.90
19292;DHT22;9779;51.756;7.450;2022-07-29T06:51:48;17.80;99.90
19292;DHT22;9779;51.756;7.450;2022-07-29T06:54:14;17.80;99.90
19292;DHT22;9779;51.756;7.450;2022-07-29T06:56:40;17.80;99.90
19292;DHT22;9779;51.756;7.450;2022-07-29T06:59:11;17.80;99.90
19292;DHT22;9779;51.756;7.450;2022-07-29T07:01:39;17.80;99.90
19292;DHT22;9779;51.756;7.450;2022-07-29T07:04:05;17.70;99.90
19292;DHT22;9779;51.756;7.450;2022-07-29T07:06:31;17.70;99.90
19292;DHT22;9779;51.756;7.450;2022-07-29T07:08:56;17.70;99.90
19292;DHT22;9779;51.756;7.450;2022-07-29T07:11:22;17.70;99.90
19292;DHT22;9779;51.756;7.450;2022-07-29T07:13:47;17.70;99.90
19292;DHT22;9779;51.756;7.450;2022-07-29T07:16:13;17.70;99.90
19292;DHT22;9779;51.756;7.450;2022-07-29T07:18:39;17.70;99.90
19292;DHT22;9779;51.756;7.450;2022-07-29T07:21:04;17.70;99.90
19292;DHT22;9779;51.756;7.450;2022-07-29T07:23:30;17.80;99.90
19292;DHT22;9779;51.756;7.450;2022-07-29T07:25:56;17.80;99.90
19292;DHT22;9779;51.756;7.450;2022-07-29T07:28:22;17.80;99.90
19292;DHT22;9779;51.756;7.450;2022-07-29T07:30:47;17.80;99.90
19292;DHT22;9779;51.756;7.450;2022-07-29T07:33:13;17.80;99.90
19292;DHT22;9779;51.756;7.450;2022-07-29T07:35:40;17.80;99.90
19292;DHT22;9779;51.756;7.450;2022-07-29T07:38:06;17.90;99.90
19292;DHT22;9779;51.756;7.450;2022-07-29T07:40:31;18.00;99.90
19292;DHT22;9779;51.756;7.450;2022-07-29T07:42:57;18.10;99.90
19292;DHT22;9779;51.756;7.450;2022-07-29T07:45:23;18.20;99.90
19292;DHT22;9779;51.756;7.450;2022-07-29T07:47:49;18.20;99.90
19292;DHT22;9779;51.756;7.450;2022-07-29T07:50:15;18.30;99.90
19292;DHT22;9779;51.756;7.450;2022-07-29T07:52:51;18.30;99.90
19292;DHT22;9779;51.756;7.450;2022-07-29T07:55:17;18.40;99.90
19292;DHT22;9779;51.756;7.450;2022-07-29T07:57:44;18.40;99.90
19292;DHT22;9779;51.756;7.450;2022-07-29T08:00:11;18.50;99.90
19292;DHT22;9779;51.756;7.450;2022-07-29T08:02:38;18.50;99.90
19292;DHT22;9779;51.756;7.450;2022-07-29T08:05:05;18.50;99.90
19292;DHT22;9779;51.756;7.450;2022-07-29T08:07:31;18.50;99.90
19292;DHT22;9779;51.756;7.450;2022-07-29T08:09:56;18.50;99.90
19292;DHT22;9779;51.756;7.450;2022-07-29T08:12:22;18.50;99.90
19292;DHT22;9779;51.756;7.450;2022-07-29T08:14:47;18.60;99.90
19292;DHT22;9779;51.756;7.450;2022-07-29T08:17:13;18.60;99.90
19292;DHT22;9779;51.756;7.450;2022-07-29T08:19:38;18.70;99.90
19292;DHT22;9779;51.756;7.450;2022-07-29T08:22:04;18.70;99.90
19292;DHT22;9779;51.756;7.450;2022-07-29T08:24:29;18.80;99.90
19292;DHT22;9779;51.756;7.450;2022-07-29T08:27:14;18.90;99.90
19292;DHT22;9779;51.756;7.450;2022-07-29T08:29:40;19.00;99.90
19292;DHT22;9779;51.756;7.450;2022-07-29T08:32:05;19.10;99.90
19292;DHT22;9779;51.756;7.450;2022-07-29T08:34:31;19.20;99.90
19292;DHT22;9779;51.756;7.450;2022-07-29T08:36:57;19.40;99.90
19292;DHT22;9779;51.756;7.450;2022-07-29T08:39:23;19.50;99.90
19292;DHT22;9779;51.756;7.450;2022-07-29T08:41:49;19.60;99.90
19292;DHT22;9779;51.756;7.450;2022-07-29T08:44:17;19.60;99.90
19292;DHT22;9779;51.756;7.450;2022-07-29T08:46:42;19.60;99.90
19292;DHT22;9779;51.756;7.450;2022-07-29T08:49:08;19.70;99.90
19292;DHT22;9779;51.756;7.450;2022-07-29T08:51:36;19.70;99.90
19292;DHT22;9779;51.756;7.450;2022-07-29T08:54:02;19.80;99.90
19292;DHT22;9779;51.756;7.450;2022-07-29T08:56:28;19.90;99.90
19292;DHT22;9779;51.756;7.450;2022-07-29T08:58:57;19.90;99.90
19292;DHT22;9779;51.756;7.450;2022-07-29T09:01:27;19.90;99.90
19292;DHT22;9779;51.756;7.450;2022-07-29T09:03:55;19.90;99.90
19292;DHT22;9779;51.756;7.450;2022-07-29T09:06:22;19.90;99.90
19292;DHT22;9779;51.756;7.450;2022-07-29T09:08:51;19.90;99.90
19292;DHT22;9779;51.756;7.450;2022-07-29T09:11:17;19.90;99.90
19292;DHT22;9779;51.756;7.450;2022-07-29T09:13:42;19.90;99.90
19292;DHT22;9779;51.756;7.450;2022-07-29T09:16:08;20.00;99.90
19292;DHT22;9779;51.756;7.450;2022-07-29T09:18:34;20.00;99.90
19292;DHT22;9779;51.756;7.450;2022-07-29T09:21:01;20.10;99.90
19292;DHT22;9779;51.756;7.450;2022-07-29T09:24:02;20.10;99.90
19292;DHT22;9779;51.756;7.450;2022-07-29T09:26:29;20.30;99.90
19292;DHT22;9779;51.756;7.450;2022-07-29T09:28:56;20.30;99.90
19292;DHT22;9779;51.756;7.450;2022-07-29T09:31:38;20.20;99.90
19292;DHT22;9779;51.756;7.450;2022-07-29T09:34:05;20.20;99.90
19292;DHT22;9779;51.756;7.450;2022-07-29T09:36:33;20.30;99.90
19292;DHT22;9779;51.756;7.450;2022-07-29T09:39:03;20.30;99.90
19292;DHT22;9779;51.756;7.450;2022-07-29T09:41:29;20.30;99.90
19292;DHT22;9779;51.756;7.450;2022-07-29T09:43:56;20.20;99.90
19292;DHT22;9779;51.756;7.450;2022-07-29T09:46:22;20.20;99.90
19292;DHT22;9779;51.756;7.450;2022-07-29T09:49:10;20.20;99.90
19292;DHT22;9779;51.756;7.450;2022-07-29T09:51:36;20.10;99.90
19292;DHT22;9779;51.756;7.450;2022-07-29T09:56:47;20.00;99.90
19292;DHT22;9779;51.756;7.450;2022-07-29T09:59:13;20.00;99.90
19292;DHT22;9779;51.756;7.450;2022-07-29T10:01:39;20.00;99.90
19292;DHT22;9779;51.756;7.450;2022-07-29T10:04:05;20.00;99.90
19292;DHT22;9779;51.756;7.450;2022-07-29T10:06:31;19.90;99.90
19292;DHT22;9779;51.756;7.450;2022-07-29T10:09:10;19.80;99.90
19292;DHT22;9779;51.756;7.450;2022-07-29T10:11:36;19.80;99.90
19292;DHT22;9779;51.756;7.450;2022-07-29T10:14:03;19.80;99.90
19292;DHT22;9779;51.756;7.450;2022-07-29T10:16:29;19.80;99.90
19292;DHT22;9779;51.756;7.450;2022-07-29T10:18:59;19.80;99.90
19292;DHT22;9779;51.756;7.450;2022-07-29T10:21:28;19.80;99.90
19292;DHT22;9779;51.756;7.450;2022-07-29T10:23:55;19.80;99.90
19292;DHT22;9779;51.756;7.450;2022-07-29T10:26:22;19.70;99.90
19292;DHT22;9779;51.756;7.450;2022-07-29T10:28:48;19.70;99.90
19292;DHT22;9779;51.756;7.450;2022-07-29T10:31:26;19.60;99.90
19292;DHT22;9779;51.756;7.450;2022-07-29T10:36:32;19.50;99.90
19292;DHT22;9779;51.756;7.450;2022-07-29T10:44:35;19.40;99.90
19292;DHT22;9779;51.756;7.450;2022-07-29T10:47:04;19.40;99.90
19292;DHT22;9779;51.756;7.450;2022-07-29T10:49:30;19.40;99.90
19292;DHT22;9779;51.756;7.450;2022-07-29T10:51:59;19.40;99.90
19292;DHT22;9779;51.756;7.450;2022-07-29T10:59:42;19.40;99.90
19292;DHT22;9779;51.756;7.450;2022-07-29T11:05:00;19.30;99.90
19292;DHT22;9779;51.756;7.450;2022-07-29T11:07:27;19.10;99.90
19292;DHT22;9779;51.756;7.450;2022-07-29T11:15:12;18.90;99.90
19292;DHT22;9779;51.756;7.450;2022-07-29T11:20:35;19.00;99.90
19292;DHT22;9779;51.756;7.450;2022-07-29T11:23:13;19.00;99.90
19292;DHT22;9779;51.756;7.450;2022-07-29T11:25:42;18.90;99.90
19292;DHT22;9779;51.756;7.450;2022-07-29T11:28:16;18.90;99.90
19292;DHT22;9779;51.756;7.450;2022-07-29T11:30:53;18.90;99.90
19292;DHT22;9779;51.756;7.450;2022-07-29T11:33:30;18.90;99.90
19292;DHT22;9779;51.756;7.450;2022-07-29T11:36:12;18.90;99.90
19292;DHT22;9779;51.756;7.450;2022-07-29T11:38:38;18.80;99.90
19292;DHT22;9779;51.756;7.450;2022-07-29T11:43:56;18.80;99.90
19292;DHT22;9779;51.756;7.450;2022-07-29T11:49:07;18.80;99.90
19292;DHT22;9779;51.756;7.450;2022-07-29T11:51:35;18.90;99.90
19292;DHT22;9779;51.756;7.450;2022-07-29T11:54:01;18.80;99.90
19292;DHT22;9779;51.756;7.450;2022-07-29T11:56:31;18.90;99.90
19292;DHT22;9779;51.756;7.450;2022-07-29T11:59:07;18.80;99.90
19292;DHT22;9779;51.756;7.450;2022-07-29T12:01:34;18.80;99.90
19292;DHT22;9779;51.756;7.450;2022-07-29T12:04:07;18.80;99.90
19292;DHT22;9779;51.756;7.450;2022-07-29T12:06:35;18.80;99.90
19292;DHT22;9779;51.756;7.450;2022-07-29T12:09:07;18.90;99.90
19292;DHT22;9779;51.756;7.450;2022-07-29T12:11:33;18.90;99.90
19292;DHT22;9779;51.756;7.450;2022-07-29T12:13:58;19.00;99.90
19292;DHT22;9779;51.756;7.450;2022-07-29T12:16:37;19.10;99.90
19292;DHT22;9779;51.756;7.450;2022-07-29T12:19:04;19.10;99.90
19292;DHT22;9779;51.756;7.450;2022-07-29T12:21:50;19.20;99.90
19292;DHT22;9779;51.756;7.450;2022-07-29T12:24:17;19.20;99.90
19292;DHT22;9779;51.756;7.450;2022-07-29T12:26:55;19.20;99.90
19292;DHT22;9779;51.756;7.450;2022-07-29T12:29:21;19.20;99.90
19292;DHT22;9779;51.756;7.450;2022-07-29T12:31:51;19.40;99.90
19292;DHT22;9779;51.756;7.450;2022-07-29T12:34:20;19.50;99.90
19292;DHT22;9779;51.756;7.450;2022-07-29T12:36:47;19.70;99.90
19292;DHT22;9779;51.756;7.450;2022-07-29T12:39:15;19.90;99.90
19292;DHT22;9779;51.756;7.450;2022-07-29T12:41:41;20.10;99.90
19292;DHT22;9779;51.756;7.450;2022-07-29T12:44:06;20.10;99.90
19292;DHT22;9779;51.756;7.450;2022-07-29T12:46:32;20.20;99.90
19292;DHT22;9779;51.756;7.450;2022-07-29T12:48:58;20.20;99.90
19292;DHT22;9779;51.756;7.450;2022-07-29T12:51:37;20.40;99.90
19292;DHT22;9779;51.756;7.450;2022-07-29T12:54:06;20.50;99.90
19292;DHT22;9779;51.756;7.450;2022-07-29T12:56:32;20.70;99.90
19292;DHT22;9779;51.756;7.450;2022-07-29T12:58:58;21.10;99.90
19292;DHT22;9779;51.756;7.450;2022-07-29T13:01:23;21.20;99.90
19292;DHT22;9779;51.756;7.450;2022-07-29T13:03:54;21.30;99.90
19292;DHT22;9779;51.756;7.450;2022-07-29T13:06:39;21.70;99.90
19292;DHT22;9779;51.756;7.450;2022-07-29T13:11:36;22.40;99.90
19292;DHT22;9779;51.756;7.450;2022-07-29T13:14:02;22.70;99.90
19292;DHT22;9779;51.756;7.450;2022-07-29T13:16:28;23.00;99.90
19292;DHT22;9779;51.756;7.450;2022-07-29T13:19:05;23.20;99.90
19292;DHT22;9779;51.756;7.450;2022-07-29T13:21:31;23.00;99.90
19292;DHT22;9779;51.756;7.450;2022-07-29T13:23:56;22.90;99.90
19292;DHT22;9779;51.756;7.450;2022-07-29T13:26:22;22.90;99.90
19292;DHT22;9779;51.756;7.450;2022-07-29T13:28:47;23.00;99.90
19292;DHT22;9779;51.756;7.450;2022-07-29T13:31:13;23.20;99.90
19292;DHT22;9779;51.756;7.450;2022-07-29T13:33:39;23.40;99.90
19292;DHT22;9779;51.756;7.450;2022-07-29T13:36:04;23.40;99.90
19292;DHT22;9779;51.756;7.450;2022-07-29T13:38:30;23.40;99.90
19292;DHT22;9779;51.756;7.450;2022-07-29T13:40:55;23.40;99.90
19292;DHT22;9779;51.756;7.450;2022-07-29T13:43:21;23.30;99.90
19292;DHT22;9779;51.756;7.450;2022-07-29T13:45:46;23.30;99.90
19292;DHT22;9779;51.756;7.450;2022-07-29T13:48:12;23.20;99.90
19292;DHT22;9779;51.756;7.450;2022-07-29T13:50:37;23.30;99.90
19292;DHT22;9779;51.756;7.450;2022-07-29T13:53:03;23.30;99.90
19292;DHT22;9779;51.756;7.450;2022-07-29T13:55:29;23.30;99.90
19292;DHT22;9779;51.756;7.450;2022-07-29T13:57:54;23.40;99.90
19292;DHT22;9779;51.756;7.450;2022-07-29T14:00:20;23.50;99.90
19292;DHT22;9779;51.756;7.450;2022-07-29T14:02:46;23.70;99.90
19292;DHT22;9779;51.756;7.450;2022-07-29T14:05:11;23.80;99.90
19292;DHT22;9779;51.756;7.450;2022-07-29T14:10:05;24.40;99.90
19292;DHT22;9779;51.756;7.450;2022-07-29T14:12:31;24.80;99.90
19292;DHT22;9779;51.756;7.450;2022-07-29T14:14:56;25.00;99.90
19292;DHT22;9779;51.756;7.450;2022-07-29T14:17:22;25.10;99.90
19292;DHT22;9779;51.756;7.450;2022-07-29T14:19:48;25.10;99.90
19292;DHT22;9779;51.756;7.450;2022-07-29T14:22:14;25.20;99.90
19292;DHT22;9779;51.756;7.450;2022-07-29T14:24:39;25.30;99.90
19292;DHT22;9779;51.756;7.450;2022-07-29T14:27:06;25.30;99.90
19292;DHT22;9779;51.756;7.450;2022-07-29T14:29:32;25.30;99.90
19292;DHT22;9779;51.756;7.450;2022-07-29T14:31:57;25.50;99.90
19292;DHT22;9779;51.756;7.450;2022-07-29T14:34:23;25.60;99.90
19292;DHT22;9779;51.756;7.450;2022-07-29T14:36:49;25.60;99.90
19292;DHT22;9779;51.756;7.450;2022-07-29T14:39:15;25.70;99.90
19292;DHT22;9779;51.756;7.450;2022-07-29T14:41:42;25.70;99.90
19292;DHT22;9779;51.756;7.450;2022-07-29T14:44:08;25.80;99.90
19292;DHT22;9779;51.756;7.450;2022-07-29T14:46:34;25.80;99.90
19292;DHT22;9779;51.756;7.450;2022-07-29T14:49:00;25.90;99.90
19292;DHT22;9779;51.756;7.450;2022-07-29T14:51:25;26.10;99.90
19292;DHT22;9779;51.756;7.450;2022-07-29T14:53:51;26.10;99.90
19292;DHT22;9779;51.756;7.450;2022-07-29T14:56:17;26.20;99.90
19292;DHT22;9779;51.756;7.450;2022-07-29T14:58:42;26.20;99.90
19292;DHT22;9779;51.756;7.450;2022-07-29T15:01:08;26.30;99.90
19292;DHT22;9779;51.756;7.450;2022-07-29T15:03:33;26.50;99.90
19292;DHT22;9779;51.756;7.450;2022-07-29T15:05:59;26.50;99.90
19292;DHT22;9779;51.756;7.450;2022-07-29T15:08:25;26.80;99.90
19292;DHT22;9779;51.756;7.450;2022-07-29T15:10:51;27.20;99.90
19292;DHT22;9779;51.756;7.450;2022-07-29T15:13:16;27.30;99.90
19292;DHT22;9779;51.756;7.450;2022-07-29T15:15:42;27.20;99.90
19292;DHT22;9779;51.756;7.450;2022-07-29T15:18:07;27.50;99.90
19292;DHT22;9779;51.756;7.450;2022-07-29T15:28:01;28.10;99.90
19292;DHT22;9779;51.756;7.450;2022-07-29T15:30:29;28.10;99.90
19292;DHT22;9779;51.756;7.450;2022-07-29T15:35:22;27.70;99.90
19292;DHT22;9779;51.756;7.450;2022-07-29T15:42:42;27.50;99.90
19292;DHT22;9779;51.756;7.450;2022-07-29T15:45:07;27.80;99.90
19292;DHT22;9779;51.756;7.450;2022-07-29T15:47:35;27.80;99.90
19292;DHT22;9779;51.756;7.450;2022-07-29T15:50:01;27.80;99.90
19292;DHT22;9779;51.756;7.450;2022-07-29T16:12:02;28.30;99.90
19292;DHT22;9779;51.756;7.450;2022-07-29T16:14:28;28.30;99.90
19292;DHT22;9779;51.756;7.450;2022-07-29T16:16:54;28.70;97.50
19292;DHT22;9779;51.756;7.450;2022-07-29T16:19:19;28.60;96.10
19292;DHT22;9779;51.756;7.450;2022-07-29T16:21:45;28.20;96.10
19292;DHT22;9779;51.756;7.450;2022-07-29T16:24:10;28.30;96.40
19292;DHT22;9779;51.756;7.450;2022-07-29T16:26:36;28.40;96.20
19292;DHT22;9779;51.756;7.450;2022-07-29T16:29:02;28.40;96.10
19292;DHT22;9779;51.756;7.450;2022-07-29T16:31:28;28.60;96.70
19292;DHT22;9779;51.756;7.450;2022-07-29T16:33:54;28.70;95.80
19292;DHT22;9779;51.756;7.450;2022-07-29T16:36:20;28.70;94.90
19292;DHT22;9779;51.756;7.450;2022-07-29T16:38:46;28.70;96.10
19292;DHT22;9779;51.756;7.450;2022-07-29T16:41:12;28.80;94.90
19292;DHT22;9779;51.756;7.450;2022-07-29T16:43:38;28.60;94.80
19292;DHT22;9779;51.756;7.450;2022-07-29T16:46:06;28.60;95.50
19292;DHT22;9779;51.756;7.450;2022-07-29T16:48:31;28.60;95.80
19292;DHT22;9779;51.756;7.450;2022-07-29T16:50:57;28.50;95.20
19292;DHT22;9779;51.756;7.450;2022-07-29T16:53:22;28.20;95.60
19292;DHT22;9779;51.756;7.450;2022-07-29T16:55:48;28.00;95.30
19292;DHT22;9779;51.756;7.450;2022-07-29T16:58:13;28.00;95.80
19292;DHT22;9779;51.756;7.450;2022-07-29T17:00:39;27.80;95.60
19292;DHT22;9779;51.756;7.450;2022-07-29T17:03:05;27.80;95.70
19292;DHT22;9779;51.756;7.450;2022-07-29T17:05:30;27.60;95.90
19292;DHT22;9779;51.756;7.450;2022-07-29T17:07:56;27.50;96.30
19292;DHT22;9779;51.756;7.450;2022-07-29T17:10:23;27.40;96.70
19292;DHT22;9779;51.756;7.450;2022-07-29T17:12:49;27.30;96.80
19292;DHT22;9779;51.756;7.450;2022-07-29T17:15:14;27.20;96.90